createdAt,value
2022-12-18T00:01:31.318Z,95613.58
2022-12-18T00:03:57.786Z,95620.85
2022-12-18T00:06:24.046Z,95620.94
2022-12-18T00:08:50.418Z,95621.98
2022-12-18T00:11:16.821Z,95625.84
2022-12-18T00:13:43.205Z,95631.91
2022-12-18T00:16:09.602Z,95631.45
2022-12-18T00:18:36.335Z,95632.28
2022-12-18T00:21:02.264Z,95634.48
2022-12-18T00:23:28.599Z,95636.27
2022-12-18T00:25:55.001Z,95640.13
2022-12-18T00:28:21.348Z,95641.87
2022-12-18T00:30:47.735Z,95639.84
2022-12-18T00:33:14.072Z,95642.08
2022-12-18T00:35:40.465Z,95649.81
2022-12-18T00:38:06.809Z,95652.13
2022-12-18T00:40:33.194Z,95654.22
2022-12-18T00:42:59.530Z,95650.36
2022-12-18T00:45:25.942Z,95625.13
2022-12-18T00:47:52.257Z,95655.38
2022-12-18T00:50:18.644Z,95662.61
2022-12-18T00:52:44.979Z,95666.47
2022-12-18T00:55:11.370Z,95668.34
2022-12-18T00:57:37.730Z,95671.48
2022-12-18T01:00:04.137Z,95671.95
2022-12-18T01:02:30.653Z,95679.67
2022-12-18T01:04:56.910Z,95678.47
2022-12-18T01:07:23.259Z,95681.99
2022-12-18T01:09:49.644Z,95683.28
2022-12-18T01:12:15.987Z,95686.31
2022-12-18T01:14:42.375Z,95688.98
2022-12-18T01:17:08.719Z,95695.33
2022-12-18T01:19:35.100Z,95692.50
2022-12-18T01:22:02.409Z,95691.67
2022-12-18T01:24:27.828Z,95695.87
2022-12-18T01:26:54.170Z,95694.24
2022-12-18T01:29:20.553Z,95692.95
2022-12-18T01:31:46.950Z,95703.72
2022-12-18T01:34:13.294Z,95709.32
2022-12-18T01:36:39.638Z,95715.39
2022-12-18T01:39:06.022Z,95707.41
2022-12-18T01:41:32.378Z,95709.06
2022-12-18T01:43:58.764Z,95714.59
2022-12-18T01:46:25.109Z,95712.47
2022-12-18T01:48:51.497Z,95717.82
2022-12-18T01:51:17.842Z,95724.14
2022-12-18T01:53:44.232Z,95722.85
2022-12-18T01:56:10.580Z,95723.05
2022-12-18T01:58:36.997Z,95722.97
2022-12-18T02:01:03.550Z,95724.80
2022-12-18T02:03:29.930Z,95725.37
2022-12-18T02:05:56.223Z,95729.49
2022-12-18T02:08:22.607Z,95743.20
2022-12-18T02:10:48.954Z,95738.62
2022-12-18T02:13:15.340Z,95744.03
2022-12-18T02:15:41.683Z,95745.20
2022-12-18T02:18:08.067Z,95744.94
2022-12-18T02:20:34.413Z,95744.48
2022-12-18T02:23:00.792Z,95746.48
2022-12-18T02:25:27.139Z,95748.34
2022-12-18T02:27:53.583Z,95751.12
2022-12-18T02:30:19.930Z,95753.32
2022-12-18T02:32:46.323Z,95754.61
2022-12-18T02:35:12.670Z,95758.66
2022-12-18T02:37:39.068Z,95752.86
2022-12-18T02:40:05.420Z,95762.33
2022-12-18T02:42:31.802Z,95759.88
2022-12-18T02:44:58.242Z,95759.76
2022-12-18T02:47:24.537Z,95761.88
2022-12-18T02:49:53.456Z,95757.30
2022-12-18T02:52:21.620Z,95765.73
2022-12-18T02:54:46.232Z,95769.80
2022-12-18T02:57:12.665Z,95773.09
2022-12-18T02:59:39.008Z,95767.48
2022-12-18T03:02:05.673Z,95777.52
2022-12-18T03:04:31.753Z,95778.44
2022-12-18T03:06:58.129Z,95782.30
2022-12-18T03:09:24.467Z,95787.88
2022-12-18T03:11:51.886Z,95789.64
2022-12-18T03:14:17.340Z,95788.81
2022-12-18T03:16:43.778Z,95788.36
2022-12-18T03:19:10.076Z,95787.16
2022-12-18T03:21:36.426Z,95786.69
2022-12-18T03:24:02.813Z,95792.41
2022-12-18T03:26:29.186Z,95795.45
2022-12-18T03:28:55.573Z,95791.58
2022-12-18T03:31:21.941Z,95802.42
2022-12-18T03:33:48.310Z,95808.77
2022-12-18T03:36:14.652Z,95808.40
2022-12-18T03:38:41.039Z,95810.59
2022-12-18T03:41:07.412Z,95820.24
2022-12-18T03:43:33.798Z,95818.05
2022-12-18T03:46:00.228Z,95814.56
2022-12-18T03:48:26.557Z,95821.91
2022-12-18T03:50:52.890Z,95831.75
2022-12-18T03:53:19.274Z,95845.80
2022-12-18T03:55:45.620Z,95850.60
2022-12-18T03:58:12.003Z,95837.73
2022-12-18T04:00:38.339Z,95833.49
2022-12-18T04:03:04.773Z,95834.22
2022-12-18T04:05:31.067Z,95831.64
2022-12-18T04:07:57.520Z,95829.73
2022-12-18T04:10:23.861Z,95837.56
2022-12-18T04:12:50.241Z,95838.03
2022-12-18T04:15:16.587Z,95842.16
2022-12-18T04:17:42.976Z,95846.92
2022-12-18T04:20:09.319Z,95844.34
2022-12-18T04:22:35.710Z,95850.79
2022-12-18T04:25:02.074Z,95856.69
2022-12-18T04:27:28.440Z,95855.86
2022-12-18T04:29:54.779Z,95859.34
2022-12-18T04:32:21.179Z,95860.63
2022-12-18T04:34:47.526Z,95865.33
2022-12-18T04:37:13.910Z,95870.02
2022-12-18T04:39:40.246Z,95869.11
2022-12-18T04:42:06.637Z,95878.95
2022-12-18T04:44:32.994Z,95879.41
2022-12-18T04:46:59.377Z,95887.13
2022-12-18T04:49:25.844Z,95888.88
2022-12-18T04:51:52.230Z,95891.83
2022-12-18T04:54:18.571Z,95896.14
2022-12-18T04:56:44.964Z,95898.72
2022-12-18T04:59:11.304Z,95902.13
2022-12-18T05:01:37.842Z,95900.34
2022-12-18T05:04:04.089Z,95900.00
2022-12-18T05:06:30.444Z,95902.92
2022-12-18T05:08:56.780Z,95915.00
2022-12-18T05:11:23.156Z,95908.08
2022-12-18T05:13:49.494Z,95911.86
2022-12-18T05:16:15.958Z,95919.66
2022-12-18T05:18:42.234Z,95924.09
2022-12-18T05:21:08.635Z,95921.25
2022-12-18T05:23:34.963Z,95924.28
2022-12-18T05:26:01.434Z,95927.69
2022-12-18T05:28:27.773Z,95936.78
2022-12-18T05:30:54.206Z,95943.03
2022-12-18T05:33:20.510Z,95948.55
2022-12-18T05:35:46.898Z,95946.63
2022-12-18T05:38:13.245Z,95939.73
2022-12-18T05:40:39.630Z,95943.64
2022-12-18T05:43:05.974Z,95943.22
2022-12-18T05:45:32.368Z,95944.92
2022-12-18T05:47:58.715Z,95950.48
2022-12-18T05:50:25.105Z,95957.19
2022-12-18T05:52:51.446Z,95970.36
2022-12-18T05:55:17.829Z,95972.45
2022-12-18T05:57:44.167Z,95972.45
2022-12-18T06:00:10.573Z,95980.28
2022-12-18T06:02:37.146Z,95994.07
2022-12-18T06:05:03.292Z,95999.14
2022-12-18T06:07:30.901Z,95998.20
2022-12-18T06:09:56.029Z,95990.47
2022-12-18T06:12:22.377Z,95997.75
2022-12-18T06:14:48.764Z,95995.73
2022-12-18T06:17:15.112Z,95999.78
2022-12-18T06:19:41.501Z,96001.52
2022-12-18T06:22:07.907Z,96001.72
2022-12-18T06:24:34.291Z,96005.13
2022-12-18T06:27:00.632Z,96013.38
2022-12-18T06:29:27.014Z,96019.82
2022-12-18T06:31:53.460Z,96022.02
2022-12-18T06:34:19.740Z,96031.41
2022-12-18T06:36:46.081Z,96027.17
2022-12-18T06:39:12.534Z,96034.44
2022-12-18T06:41:38.884Z,96030.58
2022-12-18T06:44:05.263Z,96034.09
2022-12-18T06:46:31.606Z,96041.81
2022-12-18T06:48:58.009Z,96040.98
2022-12-18T06:51:24.350Z,96043.55
2022-12-18T06:53:50.748Z,96043.10
2022-12-18T06:56:17.088Z,96042.27
2022-12-18T06:58:43.482Z,96051.73
2022-12-18T07:01:09.890Z,96049.05
2022-12-18T07:03:36.304Z,96049.05
2022-12-18T07:06:02.562Z,96040.19
2022-12-18T07:08:28.967Z,96045.75
2022-12-18T07:10:56.396Z,96059.91
2022-12-18T07:13:21.696Z,96054.77
2022-12-18T07:15:48.095Z,96059.50
2022-12-18T07:18:14.516Z,96061.58
2022-12-18T07:20:40.874Z,96065.06
2022-12-18T07:23:07.258Z,96059.91
2022-12-18T07:25:33.605Z,96068.09
2022-12-18T07:27:59.991Z,96068.92
2022-12-18T07:30:26.333Z,96068.92
2022-12-18T07:32:52.731Z,96071.95
2022-12-18T07:35:22.048Z,96081.39
2022-12-18T07:37:45.459Z,96083.97
2022-12-18T07:40:11.838Z,96077.53
2022-12-18T07:42:38.223Z,96080.97
2022-12-18T07:45:04.566Z,96091.06
2022-12-18T07:47:30.959Z,96094.09
2022-12-18T07:49:57.300Z,96098.80
2022-12-18T07:52:26.161Z,96096.48
2022-12-18T07:54:50.030Z,96095.20
2022-12-18T07:57:34.045Z,96102.78
2022-12-18T07:59:42.758Z,96104.14
2022-12-18T08:02:09.315Z,96070.44
2022-12-18T08:04:35.479Z,96103.77
2022-12-18T08:07:01.871Z,96108.42
2022-12-18T08:09:28.244Z,96117.44
2022-12-18T08:11:54.632Z,96121.71
2022-12-18T08:14:20.980Z,96126.41
2022-12-18T08:16:47.402Z,96131.25
2022-12-18T08:19:13.708Z,96131.33
2022-12-18T08:21:40.100Z,96136.41
2022-12-18T08:24:06.434Z,96144.20
2022-12-18T08:26:32.828Z,96135.64
2022-12-18T08:28:59.205Z,96139.05
2022-12-18T08:31:25.619Z,96139.88
2022-12-18T08:33:51.960Z,96144.58
2022-12-18T08:36:18.530Z,96147.53
2022-12-18T08:38:44.907Z,96149.20
2022-12-18T08:41:11.291Z,96145.99
2022-12-18T08:46:20.015Z,96153.83
2022-12-18T08:48:46.340Z,96154.00
2022-12-18T08:51:12.696Z,96149.68
2022-12-18T08:53:39.499Z,96147.94
2022-12-18T08:56:05.425Z,96147.10
2022-12-18T08:58:31.818Z,96144.00
2022-12-18T09:00:58.208Z,96151.80
2022-12-18T09:03:24.639Z,96151.24
2022-12-18T09:05:50.932Z,96155.41
2022-12-18T09:08:17.314Z,96155.94
2022-12-18T09:10:43.689Z,96146.92
2022-12-18T09:13:10.052Z,96150.26
2022-12-18T09:15:36.390Z,96138.11
2022-12-18T09:18:02.784Z,96139.95
2022-12-18T09:20:29.133Z,96150.08
2022-12-18T09:22:57.638Z,96150.91
2022-12-18T09:25:23.980Z,96148.41
2022-12-18T09:27:50.364Z,96149.52
2022-12-18T09:30:16.711Z,96150.81
2022-12-18T09:32:43.092Z,96149.06
2022-12-18T09:35:09.440Z,96148.61
2022-12-18T09:37:35.833Z,96148.50
2022-12-18T09:40:02.179Z,96151.01
2022-12-18T09:42:28.566Z,96155.70
2022-12-18T09:44:54.966Z,96154.41
2022-12-18T09:47:21.330Z,96158.36
2022-12-18T09:49:47.676Z,96160.67
2022-12-18T09:52:14.066Z,96153.86
2022-12-18T09:54:40.413Z,96154.31
2022-12-18T09:57:06.789Z,96146.05
2022-12-18T09:59:33.135Z,96156.70
2022-12-18T10:01:59.658Z,96153.02
2022-12-18T10:04:25.926Z,96153.78
2022-12-18T10:06:52.259Z,96153.78
2022-12-18T10:09:18.604Z,96152.77
2022-12-18T10:11:44.988Z,96158.00
2022-12-18T10:14:11.334Z,96155.52
2022-12-18T10:16:37.716Z,96159.39
2022-12-18T10:19:04.056Z,96153.02
2022-12-18T10:21:30.454Z,96160.75
2022-12-18T10:23:56.796Z,96158.73
2022-12-18T10:26:23.182Z,96161.31
2022-12-18T10:28:49.560Z,96161.69
2022-12-18T10:31:16.003Z,96156.16
2022-12-18T10:33:42.304Z,96160.02
2022-12-18T10:36:08.679Z,96156.69
2022-12-18T10:38:35.019Z,96154.49
2022-12-18T10:41:01.411Z,96159.09
2022-12-18T10:43:27.759Z,96159.37
2022-12-18T10:45:54.140Z,96155.12
2022-12-18T10:48:20.482Z,96149.97
2022-12-18T10:51:10.451Z,96147.40
2022-12-18T10:53:13.220Z,96148.50
2022-12-18T10:55:39.603Z,96152.38
2022-12-18T10:58:05.948Z,96148.23
2022-12-18T11:00:32.333Z,96143.08
2022-12-18T11:02:59.105Z,96147.05
2022-12-18T11:05:25.090Z,96144.47
2022-12-18T11:07:51.432Z,96145.66
2022-12-18T11:10:17.901Z,96147.95
2022-12-18T11:12:44.197Z,96147.85
2022-12-18T11:15:10.678Z,96153.38
2022-12-18T11:17:37.019Z,96150.16
2022-12-18T11:20:03.402Z,96149.90
2022-12-18T11:22:29.755Z,96154.40
2022-12-18T11:25:29.497Z,96147.78
2022-12-18T11:27:22.528Z,96153.66
2022-12-18T11:29:48.874Z,96155.70
2022-12-18T11:32:15.233Z,96157.98
2022-12-18T11:34:41.675Z,96154.67
2022-12-18T11:39:53.329Z,96154.31
2022-12-18T11:42:19.667Z,96156.43
2022-12-18T11:44:46.057Z,96157.72
2022-12-18T11:47:12.402Z,96153.66
2022-12-18T11:49:38.803Z,96165.45
2022-12-18T11:52:05.151Z,96158.17
2022-12-18T11:54:31.535Z,96159.84
2022-12-18T11:56:57.876Z,96160.30
2022-12-18T11:59:24.265Z,96162.98
2022-12-18T12:01:50.746Z,96160.20
2022-12-18T12:04:17.042Z,96154.49
2022-12-18T12:06:43.341Z,96156.34
2022-12-18T12:09:09.728Z,96158.91
2022-12-18T12:11:36.075Z,96161.49
2022-12-18T12:14:02.463Z,96161.03
2022-12-18T12:16:28.873Z,96162.14
2022-12-18T12:18:55.206Z,96159.84
2022-12-18T12:21:21.535Z,96158.81
2022-12-18T12:23:47.921Z,96155.05
2022-12-18T12:26:14.259Z,96160.86
2022-12-18T12:28:40.978Z,96163.23
2022-12-18T12:31:07.072Z,96159.27
2022-12-18T12:33:33.382Z,96163.61
2022-12-18T12:35:59.730Z,96166.53
2022-12-18T12:38:26.241Z,96167.83
2022-12-18T12:41:00.556Z,96170.33
2022-12-18T12:43:18.969Z,96169.30
2022-12-18T12:45:45.403Z,96168.45
2022-12-18T12:48:11.769Z,96169.40
2022-12-18T12:50:38.113Z,96165.27
2022-12-18T12:53:04.500Z,96171.03
2022-12-18T12:55:30.849Z,96169.75
2022-12-18T12:57:57.237Z,96175.70
2022-12-18T13:00:23.588Z,96177.83
2022-12-18T13:02:49.997Z,96178.77
2022-12-18T13:05:16.316Z,96184.38
2022-12-18T13:07:42.711Z,96185.86
2022-12-18T13:10:09.049Z,96188.13
2022-12-18T13:12:35.438Z,96192.94
2022-12-18T13:15:01.774Z,96195.86
2022-12-18T13:17:28.160Z,96188.05
2022-12-18T13:19:54.511Z,96189.42
2022-12-18T13:22:20.901Z,96194.67
2022-12-18T13:24:47.237Z,96192.38
2022-12-18T13:27:13.679Z,96199.38
2022-12-18T13:29:40.022Z,96197.14
2022-12-18T13:32:06.426Z,96208.84
2022-12-18T13:34:33.448Z,96207.09
2022-12-18T13:36:59.154Z,96210.41
2022-12-18T13:39:32.712Z,96206.27
2022-12-18T13:41:51.911Z,96210.12
2022-12-18T13:44:19.238Z,96208.73
2022-12-18T13:46:44.641Z,96206.16
2022-12-18T13:49:11.028Z,96216.56
2022-12-18T13:51:37.362Z,96223.00
2022-12-18T13:54:03.757Z,96227.59
2022-12-18T13:56:30.117Z,96235.77
2022-12-18T13:58:56.501Z,96234.14
2022-12-18T14:01:22.985Z,96237.06
2022-12-18T14:03:49.309Z,96245.73
2022-12-18T14:06:15.579Z,96243.50
2022-12-18T14:08:42.378Z,96241.48
2022-12-18T14:11:08.312Z,96244.89
2022-12-18T14:13:34.690Z,96244.89
2022-12-18T14:16:01.541Z,96241.03
2022-12-18T14:18:27.434Z,96247.02
2022-12-18T14:20:53.779Z,96241.86
2022-12-18T14:23:20.165Z,96249.11
2022-12-18T14:25:46.512Z,96251.78
2022-12-18T14:28:12.900Z,96247.02
2022-12-18T14:30:39.277Z,96249.20
2022-12-18T14:33:05.639Z,96247.81
2022-12-18T14:35:31.978Z,96254.73
2022-12-18T14:37:58.365Z,96255.64
2022-12-18T14:40:24.701Z,96251.67
2022-12-18T14:42:51.090Z,96256.83
2022-12-18T14:45:17.448Z,96259.33
2022-12-18T14:47:43.869Z,96256.03
2022-12-18T14:50:10.213Z,96262.47
2022-12-18T14:52:36.614Z,96263.75
2022-12-18T14:55:02.964Z,96260.24
2022-12-18T14:57:29.345Z,96254.25
2022-12-18T14:59:55.701Z,96258.05
2022-12-18T15:02:22.266Z,96260.24
2022-12-18T15:04:48.425Z,96267.97
2022-12-18T15:07:14.823Z,96264.48
2022-12-18T15:09:41.170Z,96270.20
2022-12-18T15:12:07.552Z,96271.97
2022-12-18T15:14:33.906Z,96270.16
2022-12-18T15:17:00.306Z,96263.99
2022-12-18T15:19:26.647Z,96270.36
2022-12-18T15:21:53.037Z,96271.55
2022-12-18T15:24:19.373Z,96276.24
2022-12-18T15:26:45.770Z,96276.14
2022-12-18T15:29:15.763Z,96273.56
2022-12-18T15:31:38.547Z,96279.09
2022-12-18T15:34:04.895Z,96284.25
2022-12-18T15:36:31.271Z,96284.18
2022-12-18T15:39:05.071Z,96289.23
2022-12-18T15:41:24.812Z,96286.66
2022-12-18T15:43:50.354Z,96294.38
2022-12-18T15:46:16.798Z,96293.93
2022-12-18T15:48:43.092Z,96300.30
2022-12-18T15:51:09.486Z,96298.63
2022-12-18T15:53:35.830Z,96300.30
2022-12-18T15:56:02.222Z,96301.59
2022-12-18T15:58:28.558Z,96310.12
2022-12-18T16:00:54.944Z,96305.45
2022-12-18T16:03:21.342Z,96315.38
2022-12-18T16:05:47.685Z,96321.71
2022-12-18T16:08:14.029Z,96325.13
2022-12-18T16:10:40.409Z,96325.68
2022-12-18T16:13:06.795Z,96333.86
2022-12-18T16:15:33.230Z,96325.30
2022-12-18T16:18:00.678Z,96333.41
2022-12-18T16:20:25.875Z,96333.48
2022-12-18T16:22:52.221Z,96336.06
2022-12-18T16:25:18.613Z,96337.00
2022-12-18T16:27:44.951Z,96339.92
2022-12-18T16:30:11.348Z,96342.15
2022-12-18T16:32:37.686Z,96339.92
2022-12-18T16:35:05.148Z,96337.34
2022-12-18T16:37:30.425Z,96339.02
2022-12-18T16:39:56.817Z,96343.34
2022-12-18T16:42:23.175Z,96347.58
2022-12-18T16:44:49.587Z,96352.35
2022-12-18T16:47:15.959Z,96359.56
2022-12-18T16:49:42.303Z,96366.07
2022-12-18T16:52:08.647Z,96367.74
2022-12-18T16:54:35.050Z,96372.06
2022-12-18T16:57:01.392Z,96371.05
2022-12-18T16:59:28.999Z,96381.74
2022-12-18T17:01:54.191Z,96385.95
2022-12-18T17:04:20.512Z,96391.59
2022-12-18T17:06:46.856Z,96391.49
2022-12-18T17:09:13.257Z,96391.49
2022-12-18T17:11:39.613Z,96393.90
2022-12-18T17:14:06.002Z,96395.12
2022-12-18T17:16:32.445Z,96407.06
2022-12-18T17:18:58.736Z,96412.22
2022-12-18T17:21:25.083Z,96416.64
2022-12-18T17:23:51.465Z,96423.36
2022-12-18T17:26:17.814Z,96420.27
2022-12-18T17:28:44.223Z,96422.00
2022-12-18T17:31:10.588Z,96425.42
2022-12-18T17:33:36.952Z,96432.53
2022-12-18T17:36:03.289Z,96426.61
2022-12-18T17:38:29.678Z,96432.88
2022-12-18T17:40:56.036Z,96426.72
2022-12-18T17:43:22.517Z,96426.27
2022-12-18T17:45:48.903Z,96424.69
2022-12-18T17:48:15.288Z,96420.66
2022-12-18T17:50:41.632Z,96421.88
2022-12-18T17:53:08.029Z,96418.91
2022-12-18T17:55:34.378Z,96418.36
2022-12-18T17:58:00.762Z,96422.53
2022-12-18T18:00:27.107Z,96421.25
2022-12-18T18:02:56.264Z,96424.11
2022-12-18T18:05:22.590Z,96420.59
2022-12-18T18:07:48.972Z,96425.75
2022-12-18T18:10:15.318Z,96426.30
2022-12-18T18:12:41.700Z,96425.28
2022-12-18T18:15:08.048Z,96428.67
2022-12-18T18:17:34.438Z,96427.59
2022-12-18T18:20:00.785Z,96431.56
2022-12-18T18:22:27.178Z,96432.02
2022-12-18T18:24:53.523Z,96435.78
2022-12-18T18:27:19.908Z,96435.15
2022-12-18T18:29:46.265Z,96442.98
2022-12-18T18:32:14.843Z,96437.62
2022-12-18T18:34:41.180Z,96443.61
2022-12-18T18:37:07.569Z,96444.80
2022-12-18T18:39:33.951Z,96441.21
2022-12-18T18:42:00.337Z,96439.92
2022-12-18T18:44:26.693Z,96443.27
2022-12-18T18:46:53.070Z,96447.13
2022-12-18T18:49:19.411Z,96448.25
2022-12-18T18:51:45.807Z,96450.38
2022-12-18T18:54:12.234Z,96453.30
2022-12-18T18:57:18.402Z,96454.24
2022-12-18T18:59:04.973Z,96455.15
2022-12-18T19:01:31.544Z,96463.72
2022-12-18T19:06:38.042Z,96460.61
2022-12-18T19:09:04.430Z,96474.94
2022-12-18T19:11:36.076Z,96468.88
2022-12-18T19:13:57.235Z,96469.26
2022-12-18T19:16:23.644Z,96473.92
2022-12-18T19:18:49.972Z,96480.55
2022-12-18T19:21:16.341Z,96481.83
2022-12-18T19:23:42.745Z,96483.05
2022-12-18T19:26:27.958Z,96489.05
2022-12-18T19:28:37.952Z,96494.13
2022-12-18T19:31:04.221Z,96494.20
2022-12-18T19:33:45.955Z,96500.27
2022-12-18T19:35:56.974Z,96502.25
2022-12-18T19:38:23.367Z,96500.05
2022-12-18T19:40:50.756Z,96500.96
2022-12-18T19:43:17.150Z,96499.22
2022-12-18T19:45:43.559Z,96504.83
2022-12-18T19:48:09.900Z,96505.28
2022-12-18T19:50:36.244Z,96508.14
2022-12-18T19:53:02.641Z,96507.23
2022-12-18T19:55:28.989Z,96514.59
2022-12-18T19:57:55.376Z,96520.98
2022-12-18T20:00:21.726Z,96520.97
2022-12-18T20:02:48.330Z,96526.89
2022-12-18T20:05:14.475Z,96528.89
2022-12-18T20:07:40.883Z,96527.60
2022-12-18T20:10:09.296Z,96527.67
2022-12-18T20:12:33.641Z,96523.28
2022-12-18T20:15:02.163Z,96525.31
2022-12-18T20:17:28.559Z,96530.41
2022-12-18T20:19:56.149Z,96527.27
2022-12-18T20:22:21.306Z,96534.91
2022-12-18T20:24:47.660Z,96534.45
2022-12-18T20:27:16.240Z,96531.71
2022-12-18T20:29:40.439Z,96530.36
2022-12-18T20:32:06.923Z,96537.54
2022-12-18T20:34:33.249Z,96540.12
2022-12-18T20:36:59.636Z,96549.14
2022-12-18T20:39:26.090Z,96550.19
2022-12-18T20:41:52.479Z,96555.90
2022-12-18T20:44:23.581Z,96558.38
2022-12-18T20:46:45.217Z,96560.50
2022-12-18T20:49:11.563Z,96565.72
2022-12-18T20:51:37.998Z,96570.81
2022-12-18T20:54:07.955Z,96568.63
2022-12-18T20:56:30.772Z,96575.34
2022-12-18T20:58:57.116Z,96579.05
2022-12-18T21:01:23.675Z,96572.22
2022-12-18T21:03:49.988Z,96578.79
2022-12-18T21:06:16.316Z,96579.72
2022-12-18T21:08:42.674Z,96581.30
2022-12-18T21:11:09.065Z,96577.27
2022-12-18T21:13:35.413Z,96580.14
2022-12-18T21:16:01.805Z,96574.98
2022-12-18T21:18:28.148Z,96569.30
2022-12-18T21:20:54.536Z,96566.11
2022-12-18T21:23:20.893Z,96576.25
2022-12-18T21:25:48.359Z,96572.55
2022-12-18T21:28:13.652Z,96577.06
2022-12-18T21:30:40.149Z,96580.12
2022-12-18T21:33:06.447Z,96573.54
2022-12-18T21:35:32.844Z,96571.62
2022-12-18T21:37:59.279Z,96571.37
2022-12-18T21:40:25.676Z,96574.24
2022-12-18T21:42:52.042Z,96579.46
2022-12-18T21:45:18.451Z,96570.44
2022-12-18T21:47:44.789Z,96571.73
2022-12-18T21:50:11.187Z,96576.14
2022-12-18T21:52:37.546Z,96582.88
2022-12-18T21:55:09.090Z,96572.05
2022-12-18T21:57:30.312Z,96571.78
2022-12-18T21:59:56.706Z,96569.48
2022-12-18T22:02:23.211Z,96571.55
2022-12-18T22:04:49.451Z,96572.53
2022-12-18T22:07:15.798Z,96565.64
2022-12-18T22:09:42.202Z,96569.34
2022-12-18T22:12:08.554Z,96573.25
2022-12-18T22:14:34.950Z,96577.86
2022-12-18T22:17:01.297Z,96584.52
2022-12-18T22:19:27.691Z,96584.06
2022-12-18T22:21:54.034Z,96584.35
2022-12-18T22:24:20.429Z,96589.51
2022-12-18T22:26:46.797Z,96591.53
2022-12-18T22:29:13.175Z,96587.66
2022-12-18T22:31:39.622Z,96592.92
2022-12-18T22:34:05.947Z,96580.31
2022-12-18T22:36:32.302Z,96581.67
2022-12-18T22:38:58.700Z,96578.40
2022-12-18T22:41:25.101Z,96580.02
2022-12-18T22:43:51.482Z,96577.30
2022-12-18T22:46:17.936Z,96573.67
2022-12-18T22:48:44.228Z,96572.93
2022-12-18T22:51:10.605Z,96567.26
2022-12-18T22:53:37.010Z,96571.14
2022-12-18T22:56:03.362Z,96568.72
2022-12-18T22:58:29.740Z,96565.78
2022-12-18T23:00:56.110Z,96561.98
2022-12-18T23:03:22.549Z,96556.89
2022-12-18T23:05:48.849Z,96564.38
2022-12-18T23:08:15.251Z,96560.12
2022-12-18T23:10:41.603Z,96561.34
2022-12-18T23:13:08.025Z,96563.55
2022-12-18T23:15:34.379Z,96564.49
2022-12-18T23:18:00.775Z,96566.97
2022-12-18T23:20:27.121Z,96573.81
2022-12-18T23:22:53.522Z,96575.94
2022-12-18T23:25:19.869Z,96574.65
2022-12-18T23:27:46.288Z,96569.37
2022-12-18T23:30:12.632Z,96577.23
2022-12-18T23:32:39.030Z,96580.55
2022-12-18T23:35:05.410Z,96577.50
2022-12-18T23:37:57.645Z,96580.09
2022-12-18T23:39:58.160Z,96576.20
2022-12-18T23:42:24.557Z,96581.83
2022-12-18T23:44:50.958Z,96584.34
2022-12-18T23:47:17.367Z,96583.39
2022-12-18T23:49:43.722Z,96581.91
2022-12-18T23:52:10.119Z,96577.50
2022-12-18T23:54:36.469Z,96585.72
2022-12-18T23:57:02.861Z,96583.32
2022-12-18T23:59:29.202Z,96584.42
